Time;durP1;ratioP1;P1;durP2;ratioP2;P2;SDS_P1;SDS_P2;PMS_P1;PMS_P2;Temp;Humidity;BMP_temperature;BMP_pressure;BME280_temperature;BME280_humidity;BME280_pressure;Samples;Min_cycle;Max_cycle;Signal;HPM_P1;HPM_P2
2022/08/06 00:00:00;;;;;;;3.47;1.63;;;12.60;99.90;;;;;;5052498;28;20051;-65
2022/08/06 00:02:29;;;;;;;3.92;1.00;;;12.50;99.90;;;;;;5053876;28;20439;-65
2022/08/06 00:05:00;;;;;;;1.83;1.00;;;12.50;99.90;;;;;;5053586;28;20037;-66
2022/08/06 00:07:26;;;;;;;2.17;1.00;;;12.40;99.90;;;;;;5052294;28;20029;-65
2022/08/06 00:09:53;;;;;;;3.08;0.82;;;12.40;99.90;;;;;;5051904;28;20388;-65
2022/08/06 00:12:18;;;;;;;2.70;1.05;;;12.30;99.90;;;;;;5052039;28;20060;-65
2022/08/06 00:14:44;;;;;;;3.90;1.13;;;12.30;99.90;;;;;;5051867;28;20495;-65
2022/08/06 00:17:09;;;;;;;2.28;1.08;;;12.20;99.90;;;;;;5042940;28;20524;-65
2022/08/06 00:19:35;;;;;;;2.40;1.23;;;12.20;99.90;;;;;;5050746;28;20051;-65
2022/08/06 00:22:01;;;;;;;6.63;1.10;;;12.20;99.90;;;;;;5041667;28;20103;-65
2022/08/06 00:24:26;;;;;;;3.42;0.95;;;12.20;99.90;;;;;;5047654;28;20067;-65
2022/08/06 00:26:52;;;;;;;2.25;0.80;;;12.10;99.90;;;;;;5046365;28;20386;-65
2022/08/06 00:29:17;;;;;;;1.98;1.00;;;12.10;99.90;;;;;;5049199;28;20033;-65
2022/08/06 00:31:43;;;;;;;3.78;1.20;;;12.00;99.90;;;;;;5041389;28;20128;-65
2022/08/06 00:34:09;;;;;;;3.97;1.20;;;12.00;99.90;;;;;;5046174;28;20041;-64
2022/08/06 00:36:35;;;;;;;3.17;1.45;;;11.90;99.90;;;;;;5045746;28;20041;-65
2022/08/06 00:39:03;;;;;;;2.47;1.10;;;11.90;99.90;;;;;;5050862;28;20068;-65
2022/08/06 00:41:30;;;;;;;6.25;1.70;;;11.80;99.90;;;;;;5052106;28;20045;-65
2022/08/06 00:43:56;;;;;;;2.63;1.65;;;11.80;99.90;;;;;;5052311;28;20405;-65
2022/08/06 00:46:23;;;;;;;1.90;1.00;;;11.80;99.90;;;;;;5042062;28;20045;-65
2022/08/06 00:48:48;;;;;;;2.03;1.35;;;11.70;99.90;;;;;;5048530;28;20147;-65
2022/08/06 00:51:14;;;;;;;2.28;1.15;;;11.70;99.90;;;;;;5032134;28;20483;-65
2022/08/06 00:53:40;;;;;;;2.88;1.25;;;11.70;99.90;;;;;;5043665;28;20045;-65
2022/08/06 00:56:06;;;;;;;2.08;1.17;;;11.60;99.90;;;;;;5051381;28;20048;-65
2022/08/06 00:58:31;;;;;;;2.17;1.70;;;11.60;99.90;;;;;;5050124;28;20037;-65
2022/08/06 01:00:57;;;;;;;2.55;1.40;;;11.60;99.90;;;;;;5051807;28;20047;-65
2022/08/06 01:03:23;;;;;;;3.58;1.40;;;11.50;99.90;;;;;;5051900;28;20040;-64
2022/08/06 01:05:48;;;;;;;2.08;1.15;;;11.50;99.90;;;;;;5049983;28;20064;-64
2022/08/06 01:08:14;;;;;;;3.00;1.65;;;11.50;99.90;;;;;;5041948;28;20056;-65
2022/08/06 01:10:40;;;;;;;2.15;1.40;;;11.40;99.90;;;;;;5052731;28;20475;-65
2022/08/06 01:13:06;;;;;;;2.00;1.25;;;11.40;99.90;;;;;;5042352;28;20050;-65
2022/08/06 01:15:34;;;;;;;1.50;1.40;;;11.40;99.90;;;;;;5043195;28;20047;-65
2022/08/06 01:18:22;;;;;;;2.97;1.38;;;11.30;99.90;;;;;;5051175;28;20041;-65
2022/08/06 01:21:09;;;;;;;2.22;1.40;;;11.30;99.90;;;;;;5050901;28;20466;-64
2022/08/06 01:24:02;;;;;;;2.10;1.55;;;11.20;99.90;;;;;;5038947;28;20045;-65
2022/08/06 01:26:43;;;;;;;1.70;1.60;;;11.20;99.90;;;;;;5066644;28;20136;-65
2022/08/06 01:29:21;;;;;;;3.65;1.60;;;11.20;99.90;;;;;;5040034;28;20478;-65
2022/08/06 01:31:57;;;;;;;2.42;1.63;;;11.10;99.90;;;;;;5046505;28;20056;-65
2022/08/06 01:34:45;;;;;;;1.80;1.30;;;11.10;99.90;;;;;;5050926;28;20075;-64
2022/08/06 01:37:25;;;;;;;2.92;1.90;;;11.10;99.90;;;;;;5045534;28;20084;-65
2022/08/06 01:40:04;;;;;;;3.60;1.80;;;11.10;99.90;;;;;;5044764;28;20102;-65
2022/08/06 01:42:32;;;;;;;2.28;1.50;;;11.00;99.90;;;;;;5047884;28;20041;-65
2022/08/06 01:45:03;;;;;;;5.25;1.85;;;11.00;99.90;;;;;;5048446;28;20033;-65
2022/08/06 01:47:31;;;;;;;2.07;1.63;;;11.00;99.90;;;;;;5049270;28;20106;-64
2022/08/06 01:50:01;;;;;;;2.08;1.50;;;11.00;99.90;;;;;;5031579;28;20102;-65
2022/08/06 01:52:28;;;;;;;3.97;1.80;;;11.00;99.90;;;;;;5050715;28;20036;-65
2022/08/06 01:54:58;;;;;;;3.75;2.05;;;11.00;99.90;;;;;;5048335;28;20040;-65
2022/08/06 01:57:24;;;;;;;2.60;1.80;;;11.00;99.90;;;;;;5048936;28;20061;-64
2022/08/06 01:59:53;;;;;;;2.70;1.88;;;11.00;99.90;;;;;;5050892;28;20538;-65
2022/08/06 02:02:24;;;;;;;4.60;1.77;;;;;;;;;;5033901;28;20050;-64
2022/08/06 02:04:54;;;;;;;2.78;2.03;;;10.90;99.90;;;;;;5040552;28;20048;-65
2022/08/06 02:07:23;;;;;;;2.42;1.70;;;10.90;99.90;;;;;;5032364;28;20096;-65
2022/08/06 02:09:52;;;;;;;2.60;1.60;;;10.80;99.90;;;;;;5046181;28;20033;-65
2022/08/06 02:12:22;;;;;;;2.03;1.60;;;10.80;99.90;;;;;;5048521;28;20036;-65
2022/08/06 02:14:52;;;;;;;3.85;1.60;;;10.80;99.90;;;;;;5050762;28;20060;-65
2022/08/06 02:17:21;;;;;;;3.95;1.70;;;10.80;99.90;;;;;;5050083;28;20072;-65
2022/08/06 02:19:51;;;;;;;2.25;1.88;;;10.80;99.90;;;;;;5049998;28;20465;-65
2022/08/06 02:22:18;;;;;;;3.35;1.98;;;10.80;99.90;;;;;;5037672;28;20099;-65
2022/08/06 02:24:46;;;;;;;2.97;2.08;;;10.80;99.90;;;;;;5049127;28;20482;-65
2022/08/06 02:27:14;;;;;;;4.10;1.90;;;10.70;99.90;;;;;;5046201;28;20084;-65
2022/08/06 02:29:41;;;;;;;3.95;2.00;;;10.70;99.90;;;;;;5041272;28;20515;-64
2022/08/06 02:32:07;;;;;;;3.75;1.90;;;10.70;99.90;;;;;;5048374;28;20450;-65
2022/08/06 02:34:32;;;;;;;3.22;1.73;;;10.70;99.90;;;;;;5051264;28;20041;-65
2022/08/06 02:37:01;;;;;;;3.53;1.70;;;10.70;99.90;;;;;;5059324;23;20661;31
2022/08/06 02:39:32;;;;;;;2.90;1.60;;;10.70;99.90;;;;;;5010660;28;20056;-65
2022/08/06 02:42:08;;;;;;;2.45;1.67;;;10.70;99.90;;;;;;5012876;28;20041;-65
2022/08/06 02:44:48;;;;;;;2.47;1.58;;;10.60;99.90;;;;;;5011295;28;20447;-65
2022/08/06 02:47:31;;;;;;;2.53;1.38;;;10.60;99.90;;;;;;5008471;28;20052;-65
2022/08/06 02:50:00;;;;;;;7.28;1.65;;;10.60;99.90;;;;;;5011553;28;20129;-65
2022/08/06 02:52:29;;;;;;;3.00;1.55;;;10.60;99.90;;;;;;4997406;28;20049;-65
2022/08/06 02:55:13;;;;;;;2.22;1.33;;;10.50;99.90;;;;;;5045877;28;20042;-65
2022/08/06 02:57:48;;;;;;;2.30;1.45;;;10.50;99.90;;;;;;5015903;28;20037;-65
2022/08/06 03:00:13;;;;;;;1.70;1.60;;;10.40;99.90;;;;;;5009300;28;20529;-65
2022/08/06 03:02:41;;;;;;;1.85;1.42;;;10.40;99.90;;;;;;5033528;28;20056;-65
2022/08/06 03:05:10;;;;;;;1.58;1.23;;;10.30;99.90;;;;;;5048432;28;20034;-65
2022/08/06 03:07:39;;;;;;;1.75;1.38;;;10.30;99.90;;;;;;5032564;28;20695;-65
2022/08/06 03:10:06;;;;;;;2.03;1.60;;;10.20;99.90;;;;;;5030225;28;20502;-65
2022/08/06 03:12:35;;;;;;;2.15;1.33;;;10.20;99.90;;;;;;5022417;28;20045;-65
2022/08/06 03:15:02;;;;;;;1.95;1.80;;;10.20;99.90;;;;;;5017523;28;20099;-65
2022/08/06 03:17:29;;;;;;;1.60;1.30;;;10.20;99.90;;;;;;5017219;28;20041;-65
2022/08/06 03:19:56;;;;;;;2.10;1.45;;;10.20;99.90;;;;;;5035376;28;20033;-65
2022/08/06 03:22:24;;;;;;;1.63;1.52;;;10.10;99.90;;;;;;5051649;28;20052;-65
2022/08/06 03:24:51;;;;;;;1.83;1.50;;;10.10;99.90;;;;;;5018735;28;20041;-65
2022/08/06 03:27:19;;;;;;;1.75;1.65;;;10.10;99.90;;;;;;5029249;28;20375;-65
2022/08/06 03:29:45;;;;;;;1.77;1.60;;;10.10;99.90;;;;;;5018551;28;20045;-65
2022/08/06 03:32:13;;;;;;;2.88;1.52;;;10.10;99.90;;;;;;5017700;28;20048;-65
2022/08/06 03:34:39;;;;;;;3.35;1.73;;;10.10;99.90;;;;;;5052071;28;20208;-65
2022/08/06 03:37:07;;;;;;;2.00;1.60;;;10.10;99.90;;;;;;5022312;28;20072;-65
2022/08/06 03:39:34;;;;;;;2.78;1.52;;;10.00;99.90;;;;;;5002014;28;20044;-65
2022/08/06 03:41:59;;;;;;;3.08;1.77;;;10.00;99.90;;;;;;5018851;28;20383;-65
2022/08/06 03:44:25;;;;;;;2.65;2.10;;;10.00;99.90;;;;;;5050005;28;20045;-65
2022/08/06 03:47:20;;;;;;;3.20;2.10;;;10.00;99.90;;;;;;5033750;28;20592;-65
2022/08/06 03:49:56;;;;;;;2.40;2.08;;;10.10;99.90;;;;;;5016922;28;20434;-65
2022/08/06 03:52:26;;;;;;;3.83;2.10;;;10.10;99.90;;;;;;5007609;28;20479;-65
2022/08/06 03:54:55;;;;;;;2.03;1.92;;;10.00;99.90;;;;;;5034434;28;20049;-65
2022/08/06 03:57:25;;;;;;;1.92;1.83;;;10.00;99.90;;;;;;5035607;28;20045;-65
2022/08/06 03:59:58;;;;;;;2.80;2.22;;;10.00;99.90;;;;;;5027515;28;20041;-65
2022/08/06 04:02:32;;;;;;;2.97;2.35;;;10.00;99.90;;;;;;5048917;28;20044;-65
2022/08/06 04:04:59;;;;;;;2.70;2.28;;;10.00;99.90;;;;;;5017004;28;20100;-65
2022/08/06 04:07:26;;;;;;;2.63;2.42;;;10.00;99.90;;;;;;5047742;28;20116;-65
2022/08/06 04:09:52;;;;;;;4.57;2.42;;;10.00;99.90;;;;;;5046436;28;20471;-65
2022/08/06 04:12:19;;;;;;;3.13;2.45;;;10.00;99.90;;;;;;5003094;28;20135;-65
2022/08/06 04:14:44;;;;;;;5.30;2.80;;;10.00;99.90;;;;;;5008931;28;20072;-65
2022/08/06 04:17:11;;;;;;;2.50;2.30;;;10.00;99.90;;;;;;5036146;28;20036;-65
2022/08/06 04:19:38;;;;;;;3.72;3.17;;;10.00;99.90;;;;;;5014145;28;20399;-65
2022/08/06 04:22:03;;;;;;;3.28;2.97;;;10.00;99.90;;;;;;5030598;28;20038;-65
2022/08/06 04:24:30;;;;;;;7.15;2.80;;;10.00;99.90;;;;;;5011221;28;20100;-65
2022/08/06 04:26:58;;;;;;;2.90;2.70;;;10.00;99.90;;;;;;5045456;28;20041;-65
2022/08/06 04:29:24;;;;;;;2.83;2.28;;;10.10;99.90;;;;;;5046130;28;20045;-65
2022/08/06 04:31:51;;;;;;;2.97;2.55;;;10.10;99.90;;;;;;5013804;28;20103;-65
2022/08/06 04:34:24;;;;;;;2.63;2.42;;;10.10;99.90;;;;;;5012973;28;20049;-65
2022/08/06 04:36:51;;;;;;;3.65;2.85;;;10.10;99.90;;;;;;5047182;28;20056;-65
2022/08/06 04:39:18;;;;;;;2.90;2.60;;;10.10;99.90;;;;;;5011780;28;20077;-65
2022/08/06 04:41:43;;;;;;;5.07;2.58;;;10.10;99.90;;;;;;5048109;28;20037;-65
2022/08/06 04:44:11;;;;;;;4.60;2.75;;;10.20;99.90;;;;;;5044663;28;20557;-65
2022/08/06 04:46:37;;;;;;;3.58;2.10;;;10.20;99.90;;;;;;5012967;28;20055;-65
2022/08/06 04:49:03;;;;;;;2.60;2.40;;;10.20;99.90;;;;;;5013119;28;20537;-65
2022/08/06 04:51:29;;;;;;;3.78;2.25;;;10.20;99.90;;;;;;5032103;28;20041;-65
2022/08/06 04:53:54;;;;;;;2.67;2.40;;;10.30;99.90;;;;;;5029647;28;20038;-65
2022/08/06 04:56:20;;;;;;;2.67;2.30;;;10.30;99.90;;;;;;5009216;28;20096;-65
2022/08/06 04:58:46;;;;;;;2.97;2.50;;;10.40;99.90;;;;;;5035752;28;20033;-65
2022/08/06 05:01:11;;;;;;;3.20;2.60;;;10.40;99.90;;;;;;5010319;28;20128;-65
2022/08/06 05:03:37;;;;;;;3.08;2.80;;;10.50;99.90;;;;;;5047229;28;20052;-65
2022/08/06 05:06:23;;;;;;;2.83;2.40;;;10.50;99.90;;;;;;5014484;28;20656;-65
2022/08/06 05:08:54;;;;;;;3.67;2.92;;;10.60;99.90;;;;;;5004709;28;20041;-65
2022/08/06 05:11:30;;;;;;;3.75;2.75;;;10.60;99.90;;;;;;5023409;28;20041;-65
2022/08/06 05:14:04;;;;;;;3.72;2.72;;;10.60;99.90;;;;;;5029214;28;20033;-65
2022/08/06 05:16:34;;;;;;;4.40;3.00;;;10.70;99.90;;;;;;5032749;28;20059;-65
2022/08/06 05:19:04;;;;;;;3.50;3.15;;;10.70;99.90;;;;;;4996450;28;20063;-65
2022/08/06 05:21:37;;;;;;;3.13;2.80;;;10.80;99.90;;;;;;5011263;28;20585;-65
2022/08/06 05:24:03;;;;;;;4.07;3.53;;;10.70;99.90;;;;;;4998878;28;20483;-65
2022/08/06 05:26:28;;;;;;;3.67;2.88;;;10.80;99.90;;;;;;4998713;28;20041;-65
2022/08/06 05:28:54;;;;;;;4.97;3.45;;;10.90;99.90;;;;;;5014779;28;20128;-65
2022/08/06 05:31:37;;;;;;;3.25;2.95;;;10.90;99.90;;;;;;5014030;28;20052;-65
2022/08/06 05:34:03;;;;;;;3.60;3.30;;;11.00;99.90;;;;;;5000812;28;20065;-65
2022/08/06 05:36:29;;;;;;;3.30;3.00;;;11.00;99.90;;;;;;5024207;28;20442;-65
2022/08/06 05:38:55;;;;;;;2.83;2.50;;;11.10;99.90;;;;;;5047407;28;20124;-65
2022/08/06 05:41:20;;;;;;;3.25;2.97;;;11.10;99.90;;;;;;5014676;28;20037;-65
2022/08/06 05:43:46;;;;;;;4.35;2.80;;;11.10;99.90;;;;;;5047965;28;20041;-65
2022/08/06 05:46:18;;;;;;;5.07;3.00;;;11.20;99.90;;;;;;5013403;28;20499;-65
2022/08/06 05:48:54;;;;;;;3.95;3.42;;;11.20;99.90;;;;;;5013255;28;20434;-65
2022/08/06 05:51:32;;;;;;;2.92;2.65;;;11.20;99.90;;;;;;5033027;28;20048;-65
2022/08/06 05:54:08;;;;;;;3.22;2.92;;;11.30;99.90;;;;;;5014234;28;20828;-65
2022/08/06 05:56:42;;;;;;;3.63;2.88;;;11.40;99.90;;;;;;5047330;28;20045;-65
2022/08/06 05:59:16;;;;;;;3.88;3.03;;;12.10;99.90;;;;;;5014235;28;20120;-65
2022/08/06 06:01:42;;;;;;;3.63;2.33;;;13.90;99.90;;;;;;5041829;28;20076;-65
2022/08/06 06:04:08;;;;;;;2.78;2.33;;;15.70;99.90;;;;;;5010597;28;20068;-65
2022/08/06 06:06:34;;;;;;;2.67;2.10;;;18.00;99.90;;;;;;5045923;28;20053;-65
2022/08/06 06:09:00;;;;;;;3.47;2.10;;;18.80;99.90;;;;;;5032235;28;20360;-66
2022/08/06 06:11:27;;;;;;;3.08;1.65;;;20.10;99.90;;;;;;5012782;28;20100;-66
2022/08/06 06:13:54;;;;;;;4.07;1.55;;;21.50;95.40;;;;;;5030977;28;20046;-66
2022/08/06 06:16:20;;;;;;;1.80;1.48;;;;;;;;;;5008800;28;20096;-66
2022/08/06 06:18:53;;;;;;;3.10;1.45;;;22.80;94.60;;;;;;5006304;28;20049;-66
2022/08/06 06:21:31;;;;;;;2.33;1.42;;;23.80;90.30;;;;;;5013298;28;20095;-66
2022/08/06 06:24:18;;;;;;;1.70;1.40;;;24.40;91.30;;;;;;5012101;28;20049;-66
2022/08/06 06:27:06;;;;;;;3.35;1.20;;;;;;;;;;5029041;28;20069;-67
2022/08/06 06:29:52;;;;;;;1.73;0.80;;;25.20;88.20;;;;;;5006224;28;20041;-66
2022/08/06 06:32:41;;;;;;;2.33;0.93;;;27.00;83.20;;;;;;5006033;28;20041;-66
2022/08/06 06:35:29;;;;;;;1.95;0.90;;;27.80;81.10;;;;;;5046051;28;20057;-66
2022/08/06 06:38:13;;;;;;;1.20;0.60;;;28.00;82.00;;;;;;5012917;28;20705;-66
2022/08/06 06:41:08;;;;;;;1.15;0.70;;;28.20;77.70;;;;;;5013397;28;20549;-66
2022/08/06 06:43:39;;;;;;;1.45;0.77;;;28.50;75.70;;;;;;5046388;28;20050;-66
2022/08/06 06:46:24;;;;;;;;;;;29.00;75.30;;;;;;5011785;28;20073;-66
2022/08/06 06:48:54;;;;;;;1.75;0.60;;;29.50;76.50;;;;;;5031211;28;20298;-66
2022/08/06 06:51:31;;;;;;;0.75;0.57;;;29.50;76.70;;;;;;5023095;28;20379;-66
2022/08/06 06:53:58;;;;;;;1.30;0.40;;;29.80;75.50;;;;;;5004707;28;20116;-66
2022/08/06 06:56:27;;;;;;;1.65;0.50;;;;;;;;;;5001476;28;20110;-66
2022/08/06 06:58:56;;;;;;;2.30;0.57;;;29.90;72.50;;;;;;5007443;28;20131;-66
2022/08/06 07:01:23;;;;;;;1.73;0.60;;;30.50;70.40;;;;;;5011808;28;20124;-66
2022/08/06 07:03:50;;;;;;;1.63;0.40;;;30.60;70.90;;;;;;5028376;28;20048;-67
2022/08/06 07:06:17;;;;;;;1.95;0.28;;;30.80;70.40;;;;;;5046433;28;20053;-67
2022/08/06 07:08:46;;;;;;;1.85;0.40;;;30.70;68.50;;;;;;5046405;28;20076;-67
2022/08/06 07:11:20;;;;;;;1.60;0.30;;;30.80;66.50;;;;;;5046171;28;20041;-66
2022/08/06 07:13:46;;;;;;;1.25;0.50;;;30.80;65.60;;;;;;5003667;28;20066;-66
2022/08/06 07:16:15;;;;;;;1.80;0.45;;;30.70;65.80;;;;;;5015545;28;20072;-66
2022/08/06 07:18:42;;;;;;;1.70;0.30;;;30.70;66.00;;;;;;5011695;28;20053;-66
2022/08/06 07:21:09;;;;;;;2.80;0.65;;;30.20;66.20;;;;;;5045643;28;20476;-68
2022/08/06 07:23:36;;;;;;;2.30;0.50;;;30.30;66.50;;;;;;5009369;28;20116;-68
2022/08/06 07:26:02;;;;;;;1.73;0.50;;;30.00;66.40;;;;;;5003346;28;20379;-68
2022/08/06 07:28:29;;;;;;;1.17;0.52;;;29.50;67.60;;;;;;5033784;28;20124;-68
2022/08/06 07:31:02;;;;;;;3.78;0.60;;;29.20;67.10;;;;;;5012909;28;20120;-68
2022/08/06 07:33:29;;;;;;;1.55;0.50;;;29.70;65.90;;;;;;5029542;28;20478;-68
2022/08/06 07:35:57;;;;;;;1.15;0.20;;;30.00;65.40;;;;;;5046010;28;20041;-68
2022/08/06 07:38:28;;;;;;;2.45;0.50;;;30.00;64.40;;;;;;5013108;28;20058;-69
2022/08/06 07:40:57;;;;;;;1.95;0.50;;;30.00;62.40;;;;;;5013010;28;20045;-68
2022/08/06 07:43:27;;;;;;;1.52;0.28;;;30.40;63.90;;;;;;5031598;28;20371;-68
2022/08/06 07:45:55;;;;;;;2.08;0.50;;;30.20;61.50;;;;;;5033996;28;20041;-68
2022/08/06 07:48:26;;;;;;;1.35;0.40;;;29.70;62.20;;;;;;5002784;28;20056;-68
2022/08/06 07:50:53;;;;;;;0.98;0.40;;;28.30;63.60;;;;;;5016766;28;20121;-68
2022/08/06 07:53:20;;;;;;;2.30;0.47;;;29.30;64.50;;;;;;5008556;28;20054;-68
2022/08/06 07:55:47;;;;;;;1.45;0.60;;;29.70;63.40;;;;;;5016581;28;20037;-68
2022/08/06 07:58:14;;;;;;;3.08;0.50;;;29.70;62.80;;;;;;5016528;28;20464;-68
2022/08/06 08:00:40;;;;;;;1.90;0.60;;;29.80;62.60;;;;;;5016432;28;20029;-68
2022/08/06 08:08:40;;;;;;;2.30;0.60;;;28.50;63.00;;;;;;5029490;28;20484;-67
2022/08/06 08:11:07;;;;;;;2.22;0.40;;;27.00;64.20;;;;;;5038054;28;20041;-67
2022/08/06 08:13:34;;;;;;;1.60;0.50;;;26.50;66.20;;;;;;5016354;28;20037;-67
2022/08/06 08:16:00;;;;;;;2.97;0.43;;;25.90;66.90;;;;;;4999311;28;20095;-67
2022/08/06 08:18:31;;;;;;;3.17;0.60;;;25.20;67.30;;;;;;5033880;28;20581;-67
2022/08/06 08:20:59;;;;;;;1.55;0.40;;;24.50;69.50;;;;;;5047258;28;20029;-67
2022/08/06 08:23:26;;;;;;;2.88;0.50;;;24.30;71.20;;;;;;5015909;28;20044;-67
2022/08/06 08:25:52;;;;;;;1.95;0.50;;;24.20;71.20;;;;;;5043309;28;20058;-67
2022/08/06 08:28:18;;;;;;;0.90;0.55;;;23.70;69.70;;;;;;5012164;28;20060;-67
2022/08/06 08:30:45;;;;;;;2.13;0.43;;;23.80;71.40;;;;;;5015964;28;20754;-67
2022/08/06 08:33:10;;;;;;;3.15;0.40;;;23.60;71.50;;;;;;5015508;28;20049;-67
2022/08/06 08:35:36;;;;;;;0.98;0.45;;;23.80;71.50;;;;;;4998251;28;20116;-67
2022/08/06 08:38:02;;;;;;;1.75;0.50;;;23.70;68.90;;;;;;5021495;23;20057;-67
2022/08/06 08:40:30;;;;;;;1.95;0.57;;;23.00;69.00;;;;;;5047127;28;20047;-67
2022/08/06 08:42:58;;;;;;;1.63;0.40;;;23.10;71.00;;;;;;5048485;28;20049;-67
2022/08/06 08:45:25;;;;;;;2.00;0.60;;;23.00;71.40;;;;;;5055063;28;20479;-67
2022/08/06 08:47:52;;;;;;;1.63;0.50;;;22.80;72.60;;;;;;5049166;28;20041;-66
2022/08/06 08:50:20;;;;;;;1.88;0.70;;;22.30;72.90;;;;;;5058572;28;20032;-67
2022/08/06 08:52:50;;;;;;;0.98;0.60;;;21.90;74.10;;;;;;5059285;28;20072;-66
2022/08/06 08:55:17;;;;;;;2.42;0.90;;;21.70;75.20;;;;;;5047686;28;20610;-67
2022/08/06 08:57:42;;;;;;;1.98;1.00;;;21.50;75.80;;;;;;5032285;28;20048;-66
2022/08/06 09:00:09;;;;;;;2.20;0.98;;;21.30;76.20;;;;;;5023125;28;20036;-67
2022/08/06 09:02:37;;;;;;;1.70;0.90;;;21.20;76.60;;;;;;5050107;28;20116;-67
2022/08/06 09:05:05;;;;;;;1.83;0.90;;;;;;;;;;5045328;28;20047;-66
2022/08/06 09:07:32;;;;;;;2.03;0.73;;;21.10;76.20;;;;;;5051400;28;20696;-67
2022/08/06 09:09:58;;;;;;;1.85;0.85;;;21.10;76.00;;;;;;5036963;28;20116;-67
2022/08/06 09:12:24;;;;;;;3.30;1.33;;;21.00;76.80;;;;;;5042281;28;20150;-66
2022/08/06 09:14:50;;;;;;;3.10;1.20;;;21.20;76.40;;;;;;5034090;28;20501;-67
2022/08/06 09:17:15;;;;;;;2.25;1.33;;;21.30;76.80;;;;;;5040893;28;20040;-67
2022/08/06 09:19:42;;;;;;;3.47;1.38;;;21.40;76.80;;;;;;5052234;28;20047;-67
2022/08/06 09:22:09;;;;;;;2.17;1.40;;;21.70;76.60;;;;;;5063943;28;20107;-67
2022/08/06 09:24:35;;;;;;;3.75;1.40;;;22.20;75.60;;;;;;5071306;28;20040;-67
2022/08/06 09:27:15;;;;;;;2.25;1.55;;;22.30;73.20;;;;;;5071562;28;20119;-67
2022/08/06 09:29:54;;;;;;;2.75;1.35;;;22.40;74.30;;;;;;5071306;28;20044;-67
2022/08/06 09:32:43;;;;;;;2.17;1.45;;;22.50;73.00;;;;;;5053653;28;20044;-66
2022/08/06 09:35:22;;;;;;;2.60;1.10;;;22.40;73.20;;;;;;5050511;28;20044;-66
2022/08/06 09:37:50;;;;;;;3.15;1.42;;;22.10;72.50;;;;;;5046419;28;20460;-66
2022/08/06 09:40:19;;;;;;;1.95;1.13;;;21.90;75.00;;;;;;5047071;28;20844;-66
2022/08/06 09:42:50;;;;;;;2.53;1.38;;;21.70;75.30;;;;;;5060511;28;20043;-66
2022/08/06 09:45:18;;;;;;;2.63;1.10;;;21.40;76.70;;;;;;5070943;28;20051;-66
2022/08/06 09:47:49;;;;;;;2.90;1.17;;;21.10;77.90;;;;;;5067084;28;20060;-66
2022/08/06 09:50:33;;;;;;;1.80;1.08;;;20.80;79.00;;;;;;5044947;28;20033;-66
2022/08/06 09:53:03;;;;;;;3.15;0.90;;;20.60;79.90;;;;;;5047587;28;20101;-66
2022/08/06 09:55:30;;;;;;;3.10;0.98;;;20.40;81.70;;;;;;5050964;28;20514;-66
2022/08/06 09:57:57;;;;;;;2.95;0.88;;;20.20;82.90;;;;;;5047303;28;20033;-66
2022/08/06 10:00:31;;;;;;;3.85;1.02;;;20.10;83.90;;;;;;5030633;28;20061;-66
2022/08/06 10:03:03;;;;;;;3.33;1.10;;;20.10;85.80;;;;;;5048151;28;20063;-66
2022/08/06 10:05:30;;;;;;;2.00;0.98;;;20.10;87.20;;;;;;5049256;28;20494;-66
2022/08/06 10:08:07;;;;;;;3.60;0.95;;;19.80;88.00;;;;;;5029108;28;20086;-66
2022/08/06 10:10:45;;;;;;;2.58;1.08;;;20.00;87.50;;;;;;5050069;28;20175;-66
2022/08/06 10:13:31;;;;;;;1.15;0.93;;;20.10;87.20;;;;;;5048962;28;20083;-66
2022/08/06 10:16:14;;;;;;;3.90;1.23;;;20.30;90.10;;;;;;5081019;28;20127;-66
2022/08/06 10:18:49;;;;;;;3.40;1.10;;;20.00;89.70;;;;;;5069992;28;20550;-66
2022/08/06 10:21:17;;;;;;;1.95;0.90;;;20.30;89.20;;;;;;5070175;28;20028;-66
2022/08/06 10:23:46;;;;;;;2.75;0.95;;;20.40;89.40;;;;;;5053871;28;20156;-66
2022/08/06 10:26:14;;;;;;;1.42;0.80;;;20.50;89.80;;;;;;5041471;28;20049;-66
2022/08/06 10:28:43;;;;;;;3.30;1.10;;;20.80;89.10;;;;;;5043361;28;20076;-66
2022/08/06 10:31:11;;;;;;;4.97;1.30;;;21.00;87.80;;;;;;5028674;28;20037;-66
2022/08/06 10:34:00;;;;;;;1.48;1.08;;;21.20;82.20;;;;;;5049840;28;20043;-67
2022/08/06 10:36:30;;;;;;;2.33;1.05;;;21.30;81.80;;;;;;5049904;28;20033;-66
2022/08/06 10:38:57;;;;;;;3.33;1.42;;;21.70;81.80;;;;;;5050080;28;20057;-66
2022/08/06 10:41:23;;;;;;;2.03;1.10;;;21.90;80.20;;;;;;5046322;28;20058;-67
2022/08/06 10:43:50;;;;;;;3.08;1.27;;;22.20;79.40;;;;;;5048490;28;20041;-66
2022/08/06 10:46:16;;;;;;;2.72;1.30;;;22.30;77.90;;;;;;5049534;28;20106;-66
2022/08/06 10:48:44;;;;;;;2.67;1.35;;;22.40;78.40;;;;;;5049818;28;20087;-66
2022/08/06 10:51:11;;;;;;;1.88;1.20;;;22.40;78.40;;;;;;5040343;28;20049;-66
2022/08/06 10:53:39;;;;;;;2.78;1.58;;;22.40;78.90;;;;;;5042182;28;20037;-66
2022/08/06 10:56:07;;;;;;;6.38;3.58;;;22.30;78.30;;;;;;5037411;28;20032;-66
2022/08/06 10:58:34;;;;;;;2.85;1.50;;;22.30;78.70;;;;;;5040682;28;20072;-66
2022/08/06 11:01:28;;;;;;;3.00;1.25;;;22.30;78.50;;;;;;5031075;28;20042;-66
2022/08/06 11:04:30;;;;;;;2.58;1.50;;;22.40;78.60;;;;;;5019656;28;20144;-67
2022/08/06 11:07:29;;;;;;;2.40;1.17;;;21.60;77.80;;;;;;5046298;28;20465;-66
2022/08/06 11:10:05;;;;;;;2.15;1.10;;;21.90;79.00;;;;;;5028036;28;20049;-66
2022/08/06 11:13:07;;;;;;;2.03;1.40;;;22.10;79.60;;;;;;5045834;28;20394;-66
2022/08/06 11:15:36;;;;;;;;;;;22.30;77.00;;;;;;5046934;28;20045;-66
2022/08/06 11:18:10;;;;;;;2.05;1.58;;;22.50;76.80;;;;;;5048994;28;19927;-66
2022/08/06 11:20:41;;;;;;;2.55;1.40;;;22.60;77.40;;;;;;5052207;28;20490;-66
2022/08/06 11:23:13;;;;;;;1.98;1.55;;;22.90;77.40;;;;;;5037875;28;20086;-66
2022/08/06 11:25:38;;;;;;;;;;;23.20;77.00;;;;;;5044191;28;20131;-66
2022/08/06 11:28:05;;;;;;;2.05;1.70;;;22.80;70.90;;;;;;5032660;28;20307;-66
2022/08/06 11:30:44;;;;;;;1.85;1.38;;;23.00;74.30;;;;;;5032705;28;20052;-66
2022/08/06 11:33:11;;;;;;;2.70;1.70;;;23.40;73.50;;;;;;5039277;28;20041;-66
2022/08/06 11:35:37;;;;;;;1.60;1.50;;;23.70;72.90;;;;;;5039106;28;20115;-66
2022/08/06 11:38:07;;;;;;;1.75;1.50;;;23.70;70.80;;;;;;5032659;28;20080;-66
2022/08/06 11:40:56;;;;;;;2.10;1.63;;;23.80;70.80;;;;;;5030154;28;20041;-66
2022/08/06 11:43:40;;;;;;;2.20;1.67;;;24.00;69.50;;;;;;5047995;28;20040;-66
2022/08/06 11:46:18;;;;;;;2.75;1.60;;;23.90;72.80;;;;;;5034637;28;20136;-66
2022/08/06 11:48:58;;;;;;;4.15;1.80;;;24.10;70.60;;;;;;5041852;28;20123;-66
2022/08/06 11:51:54;;;;;;;2.53;1.45;;;24.10;70.70;;;;;;5041784;28;20492;-66
2022/08/06 11:54:32;;;;;;;6.88;1.83;;;24.00;70.30;;;;;;5037365;28;20076;-66
2022/08/06 11:59:27;;;;;;;2.75;1.55;;;23.30;71.70;;;;;;5051399;28;20039;-66
2022/08/06 12:01:53;;;;;;;2.00;1.80;;;23.10;71.60;;;;;;5052816;28;20045;-66
2022/08/06 12:04:47;;;;;;;1.95;1.75;;;23.00;72.40;;;;;;5053123;28;20044;-66
2022/08/06 12:07:30;;;;;;;2.92;1.63;;;22.80;72.50;;;;;;5050730;28;20133;-66
2022/08/06 12:09:59;;;;;;;2.22;1.60;;;22.90;73.70;;;;;;5046157;28;20045;-66
2022/08/06 12:12:27;;;;;;;2.53;1.88;;;22.90;73.80;;;;;;5032373;28;20053;-66
2022/08/06 12:14:57;;;;;;;3.28;2.10;;;23.10;74.10;;;;;;5032710;28;20047;-66
2022/08/06 12:17:26;;;;;;;1.90;1.67;;;23.20;72.50;;;;;;5032733;28;20029;-66
2022/08/06 12:19:57;;;;;;;5.38;2.15;;;23.20;72.40;;;;;;5047953;28;20037;-66
2022/08/06 12:22:23;;;;;;;3.85;2.30;;;23.20;72.70;;;;;;5044956;28;20528;-66
2022/08/06 12:24:51;;;;;;;2.03;1.92;;;22.90;67.80;;;;;;5032575;28;20041;-66
2022/08/06 12:27:18;;;;;;;3.10;2.28;;;22.70;71.20;;;;;;5046977;28;20044;-66
2022/08/06 12:29:44;;;;;;;3.10;2.40;;;22.70;71.70;;;;;;5034806;28;20475;-66
2022/08/06 12:32:31;;;;;;;4.03;2.42;;;22.40;71.40;;;;;;5035246;28;20044;-66
2022/08/06 12:34:59;;;;;;;3.33;2.85;;;22.70;73.70;;;;;;5035012;28;20052;-66
2022/08/06 12:37:41;;;;;;;2.90;2.40;;;22.70;67.10;;;;;;5051989;28;20053;-66
2022/08/06 12:40:27;;;;;;;2.58;2.05;;;22.70;69.00;;;;;;5040901;28;20077;-66
2022/08/06 12:43:00;;;;;;;2.38;2.13;;;22.80;71.80;;;;;;5020362;28;20060;-66
2022/08/06 12:45:28;;;;;;;2.45;2.00;;;23.10;72.00;;;;;;5031118;28;20115;-66
2022/08/06 12:48:08;;;;;;;2.42;1.98;;;23.30;73.00;;;;;;5044043;28;20064;-65
2022/08/06 12:50:43;;;;;;;2.58;2.28;;;23.30;70.00;;;;;;5034290;28;20797;-66
2022/08/06 12:53:13;;;;;;;3.85;2.42;;;23.30;72.00;;;;;;5030903;28;20047;-66
2022/08/06 12:55:44;;;;;;;4.65;2.60;;;23.40;70.70;;;;;;5031464;28;20356;-65
2022/08/06 12:58:11;;;;;;;2.88;2.58;;;23.60;72.60;;;;;;5045452;28;20055;-66
2022/08/06 13:00:39;;;;;;;3.10;2.03;;;23.50;69.70;;;;;;5048434;28;20072;-66
2022/08/06 13:03:06;;;;;;;3.53;2.50;;;23.40;69.40;;;;;;5050915;28;20040;-66
2022/08/06 13:05:33;;;;;;;2.28;2.15;;;23.10;66.50;;;;;;5043967;28;20069;-66
2022/08/06 13:08:00;;;;;;;4.78;2.55;;;23.00;69.90;;;;;;5048205;28;20047;-66
2022/08/06 13:10:26;;;;;;;3.60;3.00;;;22.80;68.90;;;;;;5048902;28;20060;-65
2022/08/06 13:12:55;;;;;;;4.13;3.10;;;22.30;66.80;;;;;;5031742;28;20044;-66
2022/08/06 13:15:22;;;;;;;8.73;2.75;;;21.90;67.70;;;;;;5032535;28;20052;-65